Time;durP1;ratioP1;P1;durP2;ratioP2;P2;SDS_P1;SDS_P2;PMS_P1;PMS_P2;Temp;Humidity;BMP_temperature;BMP_pressure;BME280_temperature;BME280_humidity;BME280_pressure;Samples;Min_cycle;Max_cycle;Signal;HPM_P1;HPM_P2
2023/03/06 00:00:51;;;;;;;9.33;4.73;;;3.60;99.90;;;;;;5041394;28;20674;-70
2023/03/06 00:03:18;;;;;;;8.57;4.03;;;3.60;99.90;;;;;;5044048;28;20690;-70
2023/03/06 00:05:46;;;;;;;8.53;5.57;;;3.60;99.90;;;;;;5022923;28;20267;-72
2023/03/06 00:08:13;;;;;;;6.13;4.07;;;3.60;99.90;;;;;;5043615;28;20230;-71
2023/03/06 00:10:40;;;;;;;8.20;4.43;;;3.60;99.90;;;;;;5032123;28;20205;-70
2023/03/06 00:13:10;;;;;;;6.77;4.93;;;3.60;99.90;;;;;;5019488;28;20253;-71
2023/03/06 00:15:37;;;;;;;8.70;4.40;;;3.50;99.90;;;;;;5042980;28;20202;-70
2023/03/06 00:18:05;;;;;;;7.80;4.87;;;3.50;99.90;;;;;;5042787;28;20303;-71
2023/03/06 00:20:34;;;;;;;9.47;4.33;;;3.40;99.90;;;;;;5039722;28;20301;-70
2023/03/06 00:23:01;;;;;;;7.90;4.50;;;3.40;99.90;;;;;;5036004;28;20239;-70
2023/03/06 00:25:28;;;;;;;8.17;4.80;;;3.40;99.90;;;;;;5036656;28;20262;-70
2023/03/06 00:27:55;;;;;;;9.47;4.80;;;3.20;99.90;;;;;;5042820;28;20231;-70
2023/03/06 00:30:23;;;;;;;8.60;4.63;;;3.10;99.90;;;;;;5039213;28;20207;-71
2023/03/06 00:32:51;;;;;;;9.13;4.50;;;3.10;99.90;;;;;;5023365;28;20360;-70
2023/03/06 00:35:19;;;;;;;6.50;4.83;;;3.00;99.90;;;;;;5042344;28;20208;-71
2023/03/06 00:37:46;;;;;;;7.50;4.77;;;3.00;99.90;;;;;;5043213;28;20294;-72
2023/03/06 00:40:15;;;;;;;9.00;4.67;;;2.90;99.90;;;;;;5041002;28;20310;-72
2023/03/06 00:42:42;;;;;;;7.27;4.80;;;2.80;99.90;;;;;;5041723;28;20199;-70
2023/03/06 00:45:09;;;;;;;6.60;4.77;;;2.80;99.90;;;;;;5039084;28;20288;-71
2023/03/06 00:47:36;;;;;;;7.43;4.97;;;2.70;99.90;;;;;;5042748;28;20238;-71
2023/03/06 00:50:04;;;;;;;8.13;5.33;;;2.60;99.90;;;;;;5031096;28;20226;-70
2023/03/06 00:52:31;;;;;;;8.77;6.17;;;2.60;99.90;;;;;;5042205;28;20293;-70
2023/03/06 00:54:58;;;;;;;6.93;4.70;;;2.60;99.90;;;;;;5041557;28;20196;-71
2023/03/06 00:57:25;;;;;;;10.53;6.07;;;2.60;99.90;;;;;;5037892;28;20205;-72
2023/03/06 00:59:51;;;;;;;9.23;4.97;;;2.90;99.90;;;;;;5030401;28;20680;-70
2023/03/06 01:02:18;;;;;;;7.93;5.33;;;2.70;99.90;;;;;;5039275;28;20219;-71
2023/03/06 01:04:45;;;;;;;10.97;5.73;;;2.50;99.90;;;;;;5042103;28;20226;-70
2023/03/06 01:07:12;;;;;;;7.37;5.50;;;2.50;99.90;;;;;;5039086;28;20281;-70
2023/03/06 01:09:39;;;;;;;6.90;5.63;;;2.50;99.90;;;;;;5041545;28;20244;-71
2023/03/06 01:12:06;;;;;;;9.50;6.73;;;2.50;99.90;;;;;;5040100;28;20291;-70
2023/03/06 01:14:33;;;;;;;10.80;5.97;;;2.50;99.90;;;;;;5042205;28;20203;-70
2023/03/06 01:17:00;;;;;;;11.30;6.60;;;2.40;99.90;;;;;;5040776;28;20198;-69
2023/03/06 01:19:27;;;;;;;9.80;5.87;;;2.40;99.90;;;;;;5039688;28;20234;-70
2023/03/06 01:21:53;;;;;;;8.53;5.50;;;2.40;99.90;;;;;;5027586;28;20208;-71
2023/03/06 01:24:22;;;;;;;11.80;6.83;;;2.40;99.90;;;;;;5038550;28;20227;-70
2023/03/06 01:26:49;;;;;;;8.80;6.30;;;2.30;99.90;;;;;;5027939;28;20206;-70
2023/03/06 01:29:16;;;;;;;9.67;6.67;;;2.40;99.90;;;;;;5039048;28;20324;-71
2023/03/06 01:31:43;;;;;;;10.00;6.63;;;2.30;99.90;;;;;;5042173;28;20203;-73
2023/03/06 01:34:09;;;;;;;12.63;6.40;;;2.30;99.90;;;;;;5042695;28;20226;-70
2023/03/06 01:36:36;;;;;;;11.17;7.03;;;2.30;99.90;;;;;;5041395;28;20220;-70
2023/03/06 01:39:03;;;;;;;13.67;7.37;;;2.30;99.90;;;;;;5038513;28;20667;-71
2023/03/06 01:41:31;;;;;;;11.43;7.30;;;2.30;99.90;;;;;;5033459;28;20209;-71
2023/03/06 01:43:58;;;;;;;12.37;6.57;;;2.30;99.90;;;;;;5025494;28;20262;-70
2023/03/06 01:46:28;;;;;;;9.87;6.70;;;2.30;99.90;;;;;;5039251;28;20203;-72
2023/03/06 01:49:44;;;;;;;11.10;7.53;;;2.30;99.90;;;;;;5041911;28;20233;-70
2023/03/06 01:52:20;;;;;;;12.43;7.63;;;2.30;99.90;;;;;;5034782;28;20352;-70
2023/03/06 01:54:52;;;;;;;16.40;6.93;;;2.30;99.90;;;;;;5041952;28;20284;-70
2023/03/06 01:57:32;;;;;;;15.13;6.67;;;2.30;99.90;;;;;;5023410;28;20656;-71
2023/03/06 02:00:05;;;;;;;11.77;6.47;;;2.30;99.90;;;;;;5037422;28;20297;-72
2023/03/06 02:02:32;;;;;;;11.83;6.83;;;2.30;99.90;;;;;;5039585;28;20218;-70
2023/03/06 02:05:00;;;;;;;11.20;6.83;;;2.30;99.90;;;;;;5039267;28;20225;-72
2023/03/06 02:07:28;;;;;;;11.80;6.50;;;2.30;99.90;;;;;;5037252;28;20298;-72
2023/03/06 02:09:54;;;;;;;10.77;7.03;;;2.30;99.90;;;;;;5038807;28;20230;-70
2023/03/06 02:12:22;;;;;;;12.40;6.23;;;2.20;99.90;;;;;;5041089;28;20207;-70
2023/03/06 02:14:49;;;;;;;10.73;6.27;;;2.20;99.90;;;;;;5026071;28;20240;-70
2023/03/06 02:17:18;;;;;;;9.53;5.97;;;2.20;99.90;;;;;;5039975;28;20217;-71
2023/03/06 02:20:09;;;;;;;8.80;6.50;;;2.20;99.90;;;;;;5041680;28;20576;-72
2023/03/06 02:23:07;;;;;;;13.33;7.00;;;2.20;99.90;;;;;;5041401;28;20232;-71
2023/03/06 02:25:38;;;;;;;15.43;7.07;;;2.10;99.90;;;;;;5029705;28;20211;-71
2023/03/06 02:28:08;;;;;;;10.63;6.83;;;2.10;99.90;;;;;;5038887;28;20294;-70
2023/03/06 02:30:35;;;;;;;13.50;7.23;;;2.10;99.90;;;;;;5044543;28;20210;-71
2023/03/06 02:33:03;;;;;;;11.37;7.20;;;2.10;99.90;;;;;;5044916;28;20662;-71
2023/03/06 02:35:33;;;;;;;13.50;7.60;;;2.10;99.90;;;;;;5041259;28;20217;-70
2023/03/06 02:38:13;;;;;;;11.60;8.03;;;2.10;99.90;;;;;;5043357;28;20225;-71
2023/03/06 02:40:46;;;;;;;12.13;7.87;;;2.10;99.90;;;;;;5041558;28;20290;-69
2023/03/06 02:43:15;;;;;;;10.40;7.80;;;2.10;99.90;;;;;;5046256;28;20204;-70
2023/03/06 02:45:48;;;;;;;13.40;8.57;;;2.10;99.90;;;;;;5044189;28;20212;-71
2023/03/06 02:48:16;;;;;;;13.00;8.20;;;2.10;99.90;;;;;;5040495;28;20231;-72
2023/03/06 02:50:45;;;;;;;14.27;9.37;;;2.20;99.90;;;;;;5043507;28;20688;-71
2023/03/06 02:53:14;;;;;;;11.47;8.20;;;2.20;99.90;;;;;;5043884;28;20203;-71
2023/03/06 02:55:41;;;;;;;13.00;8.07;;;2.20;99.90;;;;;;5040816;28;20293;-71
2023/03/06 02:58:08;;;;;;;13.30;8.20;;;2.30;99.90;;;;;;5044455;28;20208;-70
2023/03/06 03:00:35;;;;;;;15.17;9.00;;;2.30;99.90;;;;;;5041796;28;20222;-71
2023/03/06 03:03:02;;;;;;;11.47;8.43;;;2.30;99.90;;;;;;5045589;28;20282;-70
2023/03/06 03:05:29;;;;;;;15.43;8.43;;;2.40;99.90;;;;;;5039820;28;20231;-72
2023/03/06 03:07:56;;;;;;;12.93;8.57;;;2.40;99.90;;;;;;5040476;28;20224;-71
2023/03/06 03:10:24;;;;;;;11.60;8.10;;;2.30;99.90;;;;;;5022885;28;20558;-70
2023/03/06 03:12:51;;;;;;;13.77;8.33;;;2.40;99.90;;;;;;5041677;28;20207;-70
2023/03/06 03:15:18;;;;;;;12.73;8.00;;;2.40;99.90;;;;;;5047667;28;20210;-72
2023/03/06 03:17:45;;;;;;;14.93;9.00;;;2.40;99.90;;;;;;5040640;28;20256;-70
2023/03/06 03:20:15;;;;;;;10.93;8.07;;;2.40;99.90;;;;;;5041716;28;20259;-71
2023/03/06 03:22:45;;;;;;;16.27;9.53;;;2.50;99.90;;;;;;5044362;28;20290;-69
2023/03/06 03:25:13;;;;;;;14.23;8.93;;;2.50;99.90;;;;;;5046683;28;20563;-70
2023/03/06 03:27:40;;;;;;;10.80;9.00;;;2.60;99.90;;;;;;5042105;28;20210;-70
2023/03/06 03:30:07;;;;;;;15.27;9.63;;;2.60;99.90;;;;;;5044696;28;20327;-70
2023/03/06 03:32:34;;;;;;;15.37;9.77;;;2.60;99.90;;;;;;5040860;28;20228;-71
2023/03/06 03:35:01;;;;;;;16.33;9.47;;;2.60;99.90;;;;;;5048652;28;20205;-70
2023/03/06 03:37:28;;;;;;;16.33;10.03;;;2.70;99.90;;;;;;5022513;28;20218;-70
2023/03/06 03:39:55;;;;;;;15.93;11.27;;;2.70;99.90;;;;;;5023613;28;20229;-70
2023/03/06 03:42:22;;;;;;;14.33;11.20;;;2.70;99.90;;;;;;5042219;28;20666;-71
2023/03/06 03:44:48;;;;;;;19.23;11.63;;;2.70;99.90;;;;;;5042126;28;20678;-70
2023/03/06 03:47:15;;;;;;;16.73;12.63;;;2.70;99.90;;;;;;5044362;28;20212;-70
2023/03/06 03:49:42;;;;;;;18.43;13.67;;;2.70;99.90;;;;;;5049672;28;20241;-69
2023/03/06 03:52:09;;;;;;;19.23;14.23;;;2.70;99.90;;;;;;5024865;28;20202;-70
2023/03/06 03:54:35;;;;;;;19.50;15.00;;;2.70;99.90;;;;;;5044872;28;20463;-70
2023/03/06 03:57:02;;;;;;;19.03;14.77;;;2.70;99.90;;;;;;5025682;28;20208;-69
2023/03/06 03:59:29;;;;;;;18.70;14.07;;;2.70;99.90;;;;;;5040507;28;20291;-71
2023/03/06 04:01:56;;;;;;;20.77;14.90;;;2.70;99.90;;;;;;5039723;28;20210;-69
2023/03/06 04:04:22;;;;;;;24.43;15.90;;;2.70;99.90;;;;;;5043536;28;20223;-70
2023/03/06 04:06:49;;;;;;;23.97;15.53;;;2.70;99.90;;;;;;5042687;28;20303;-69
2023/03/06 04:09:16;;;;;;;25.27;15.60;;;2.70;99.90;;;;;;5031498;28;20225;-70
2023/03/06 04:11:42;;;;;;;20.47;15.27;;;2.70;99.90;;;;;;5025565;28;20204;-71
2023/03/06 04:14:09;;;;;;;20.73;15.30;;;2.70;99.90;;;;;;5038916;28;20206;-70
2023/03/06 04:16:36;;;;;;;21.53;15.67;;;2.80;99.90;;;;;;5043029;28;20604;-71
2023/03/06 04:19:03;;;;;;;20.63;15.10;;;2.80;99.90;;;;;;5045523;28;20299;-70
2023/03/06 04:21:29;;;;;;;25.30;16.63;;;2.90;99.90;;;;;;5039070;28;20212;-69
2023/03/06 04:23:57;;;;;;;23.17;16.03;;;2.90;99.90;;;;;;5047053;28;20248;-71
2023/03/06 04:26:24;;;;;;;23.70;16.73;;;2.90;99.90;;;;;;5043043;28;20297;-70
2023/03/06 04:28:50;;;;;;;23.40;16.83;;;2.90;99.90;;;;;;5043081;28;20716;-70
2023/03/06 04:31:18;;;;;;;25.23;17.00;;;2.90;99.90;;;;;;5046452;28;20219;-71
2023/03/06 04:33:45;;;;;;;27.53;17.30;;;2.90;99.90;;;;;;5021407;28;20228;-71
2023/03/06 04:36:27;;;;;;;28.27;16.97;;;2.90;99.90;;;;;;5027910;28;20294;-70
2023/03/06 04:38:54;;;;;;;27.47;16.60;;;2.90;99.90;;;;;;5038764;28;20315;-69
2023/03/06 04:41:22;;;;;;;24.10;16.67;;;2.90;99.90;;;;;;5041936;28;20212;-70
2023/03/06 04:43:49;;;;;;;29.83;18.70;;;2.90;99.90;;;;;;5041631;28;20249;-70
2023/03/06 04:46:16;;;;;;;27.23;16.73;;;2.90;99.90;;;;;;5027625;28;20617;-70
2023/03/06 04:48:43;;;;;;;25.60;17.57;;;2.90;99.90;;;;;;5020384;28;20217;-70
2023/03/06 04:51:13;;;;;;;27.87;17.80;;;2.80;99.90;;;;;;5037096;28;20341;-70
2023/03/06 04:53:41;;;;;;;27.00;17.80;;;2.80;99.90;;;;;;5027705;28;20204;-70
2023/03/06 04:56:08;;;;;;;25.03;17.77;;;2.90;99.90;;;;;;5045596;28;20288;-70
2023/03/06 04:58:35;;;;;;;27.47;17.37;;;2.90;99.90;;;;;;5040567;28;20235;-70
2023/03/06 05:01:02;;;;;;;31.33;18.63;;;2.80;99.90;;;;;;5040380;28;20202;-69
2023/03/06 05:03:29;;;;;;;28.87;17.60;;;2.90;99.90;;;;;;5020883;28;20259;-70
2023/03/06 05:05:59;;;;;;;29.00;19.07;;;2.80;99.90;;;;;;5044072;28;20251;-69
2023/03/06 05:08:26;;;;;;;27.97;18.43;;;2.80;99.90;;;;;;5040592;28;20302;-71
2023/03/06 05:10:58;;;;;;;32.80;18.80;;;2.80;99.90;;;;;;5041082;28;20221;-70
2023/03/06 05:13:25;;;;;;;31.53;18.20;;;2.80;99.90;;;;;;5041425;28;20209;-69
2023/03/06 05:15:53;;;;;;;28.77;18.20;;;2.80;99.90;;;;;;5039920;28;20246;-69
2023/03/06 05:18:20;;;;;;;28.30;18.33;;;2.80;99.90;;;;;;5035565;28;20720;-70
2023/03/06 05:20:47;;;;;;;30.10;19.07;;;2.80;99.90;;;;;;5038993;28;20581;-71
2023/03/06 05:23:13;;;;;;;30.83;18.83;;;2.80;99.90;;;;;;5037954;28;20307;-70
2023/03/06 05:25:40;;;;;;;28.03;17.90;;;2.80;99.90;;;;;;5043136;28;20204;-71
2023/03/06 05:28:07;;;;;;;30.57;18.80;;;2.80;99.90;;;;;;5042146;28;20636;-70
2023/03/06 05:30:34;;;;;;;33.97;17.97;;;2.80;99.90;;;;;;5023416;28;20238;-71
2023/03/06 05:33:01;;;;;;;33.40;18.63;;;2.70;99.90;;;;;;5040703;28;20230;-70
2023/03/06 05:35:28;;;;;;;34.43;18.97;;;2.70;99.90;;;;;;5044597;28;20200;-70
2023/03/06 05:37:55;;;;;;;31.70;18.47;;;2.60;99.90;;;;;;5041626;28;20194;-69
2023/03/06 05:40:22;;;;;;;34.07;19.37;;;2.60;99.90;;;;;;5041522;28;20518;-68
2023/03/06 05:42:48;;;;;;;35.13;19.20;;;2.60;99.90;;;;;;5037309;28;20681;-70
2023/03/06 05:45:15;;;;;;;31.53;19.03;;;2.60;99.90;;;;;;5038171;28;20742;-71
2023/03/06 05:47:42;;;;;;;35.80;19.30;;;2.60;99.90;;;;;;5041777;28;20223;-69
2023/03/06 05:50:10;;;;;;;30.10;18.67;;;2.60;99.90;;;;;;5019985;28;20231;-71
2023/03/06 05:52:38;;;;;;;34.33;18.53;;;2.60;99.90;;;;;;5037797;28;20200;-69
2023/03/06 05:55:06;;;;;;;30.93;19.33;;;2.60;99.90;;;;;;5042465;28;20210;-69
2023/03/06 05:57:33;;;;;;;34.87;18.77;;;2.60;99.90;;;;;;5024762;28;20202;-71
2023/03/06 05:59:59;;;;;;;30.33;18.83;;;2.60;99.90;;;;;;5042806;28;20294;-70
2023/03/06 06:02:26;;;;;;;32.20;18.20;;;2.60;99.90;;;;;;5043001;28;20302;-70
2023/03/06 06:04:53;;;;;;;32.37;18.97;;;2.60;99.90;;;;;;5044949;28;20231;-69
2023/03/06 06:07:20;;;;;;;34.60;18.70;;;2.70;99.90;;;;;;5043503;28;20215;-71
2023/03/06 06:09:47;;;;;;;39.20;18.77;;;2.70;99.90;;;;;;5028371;28;20226;-68
2023/03/06 06:12:14;;;;;;;37.13;18.40;;;2.70;99.90;;;;;;5047902;28;20203;-70
2023/03/06 06:14:40;;;;;;;35.77;19.23;;;2.80;99.90;;;;;;5045377;28;20269;-70
2023/03/06 06:17:07;;;;;;;30.30;16.90;;;2.80;99.90;;;;;;5043336;28;20315;-70
2023/03/06 06:19:34;;;;;;;28.80;17.30;;;2.90;99.90;;;;;;5042812;28;20240;-70
2023/03/06 06:22:03;;;;;;;28.43;16.47;;;2.90;99.90;;;;;;5031133;28;20751;-71
2023/03/06 06:24:31;;;;;;;30.37;15.97;;;3.00;99.90;;;;;;5044297;28;20295;-71
2023/03/06 06:26:58;;;;;;;31.37;16.93;;;3.00;99.90;;;;;;5046536;28;20677;-69
2023/03/06 06:29:28;;;;;;;33.47;16.10;;;3.10;99.90;;;;;;5045357;28;20748;-71
2023/03/06 06:31:55;;;;;;;26.63;15.70;;;3.10;99.90;;;;;;5043152;28;20207;-70
2023/03/06 06:34:23;;;;;;;28.77;14.87;;;3.10;99.90;;;;;;5030303;28;20532;-71
2023/03/06 06:36:51;;;;;;;23.77;14.43;;;3.20;99.90;;;;;;5045116;28;20630;-71
2023/03/06 06:39:21;;;;;;;21.60;11.90;;;3.20;99.90;;;;;;5045742;28;20206;-70
2023/03/06 06:41:50;;;;;;;20.10;12.17;;;3.20;99.90;;;;;;5024062;28;20741;-71
2023/03/06 06:44:36;;;;;;;24.50;11.97;;;3.30;99.90;;;;;;5041804;28;20572;-69
2023/03/06 06:47:04;;;;;;;20.93;10.90;;;3.30;99.90;;;;;;5039522;28;20643;-70
2023/03/06 06:49:54;;;;;;;16.33;8.93;;;3.30;99.90;;;;;;5027395;28;20247;-71
2023/03/06 06:52:23;;;;;;;15.90;8.37;;;3.40;99.90;;;;;;5038698;28;20230;-70
2023/03/06 06:54:50;;;;;;;12.77;7.97;;;3.40;99.90;;;;;;5043453;28;20216;-71
2023/03/06 06:57:17;;;;;;;12.27;7.40;;;3.50;99.90;;;;;;5025485;28;20677;-70
2023/03/06 06:59:44;;;;;;;10.93;7.43;;;3.50;99.90;;;;;;5041123;28;20227;-70
2023/03/06 07:02:12;;;;;;;13.23;7.40;;;3.50;99.90;;;;;;5023515;28;20732;-72
2023/03/06 07:04:39;;;;;;;10.07;6.90;;;3.60;99.90;;;;;;5044477;28;20281;-68
2023/03/06 07:07:22;;;;;;;10.17;6.30;;;3.70;99.90;;;;;;5043272;28;20887;-70
2023/03/06 07:09:51;;;;;;;10.47;5.57;;;3.70;99.90;;;;;;5040896;28;20229;-70
2023/03/06 07:12:17;;;;;;;8.47;5.17;;;3.70;99.90;;;;;;5047831;28;20672;-72
2023/03/06 07:14:45;;;;;;;9.33;4.80;;;3.70;99.90;;;;;;5042449;28;20296;-70
2023/03/06 07:17:12;;;;;;;13.07;5.17;;;3.80;99.90;;;;;;5042582;28;20264;-71
2023/03/06 07:19:39;;;;;;;7.80;4.43;;;3.80;99.90;;;;;;5041662;28;20240;-73
2023/03/06 07:22:06;;;;;;;9.40;4.73;;;3.90;99.90;;;;;;5047794;28;20197;-69
2023/03/06 07:24:33;;;;;;;9.07;4.47;;;4.00;99.90;;;;;;5041711;28;20592;-70
2023/03/06 07:27:00;;;;;;;8.90;4.20;;;4.00;99.90;;;;;;5045010;28;20213;-71
2023/03/06 07:29:26;;;;;;;8.80;4.10;;;4.10;99.90;;;;;;5041727;28;20206;-69
2023/03/06 07:31:53;;;;;;;6.63;3.77;;;4.10;99.90;;;;;;5033635;28;20217;-70
2023/03/06 07:34:20;;;;;;;6.43;3.90;;;4.10;99.90;;;;;;5040990;28;20226;-72
2023/03/06 07:36:47;;;;;;;6.53;3.67;;;4.10;99.90;;;;;;5044084;28;20291;-72
2023/03/06 07:39:13;;;;;;;6.57;3.63;;;4.10;99.90;;;;;;5040662;28;20210;-70
2023/03/06 07:41:40;;;;;;;6.20;3.43;;;4.20;99.90;;;;;;5025067;28;20239;-69
2023/03/06 07:44:07;;;;;;;5.10;3.67;;;4.30;99.90;;;;;;5025573;28;20213;-71
2023/03/06 07:46:34;;;;;;;6.20;3.23;;;4.30;99.90;;;;;;5033777;28;20220;-70
2023/03/06 07:49:01;;;;;;;3.90;3.37;;;4.40;99.90;;;;;;5044819;28;20213;-70
2023/03/06 07:51:27;;;;;;;4.73;3.33;;;4.50;99.90;;;;;;5044002;28;20244;-70
2023/03/06 07:53:54;;;;;;;5.87;3.60;;;4.50;99.90;;;;;;5047252;28;20198;-72
2023/03/06 07:56:21;;;;;;;4.40;2.83;;;4.60;99.90;;;;;;5024889;28;20284;-72
2023/03/06 07:58:47;;;;;;;4.50;3.00;;;4.60;99.90;;;;;;5043943;28;20197;-70
2023/03/06 08:01:18;;;;;;;4.37;3.17;;;4.60;99.90;;;;;;5041492;28;20221;-70
2023/03/06 08:03:46;;;;;;;3.57;2.67;;;4.60;99.90;;;;;;5041614;28;20264;-70
2023/03/06 08:06:16;;;;;;;3.90;3.17;;;4.60;99.90;;;;;;5040920;28;20270;-70
2023/03/06 08:08:44;;;;;;;2.97;2.37;;;4.60;99.90;;;;;;5039999;28;20209;-70
2023/03/06 08:11:13;;;;;;;4.40;2.80;;;4.60;99.90;;;;;;5030050;28;20592;-69
2023/03/06 08:13:40;;;;;;;3.80;2.40;;;4.50;99.90;;;;;;5049094;28;20231;-70
2023/03/06 08:16:08;;;;;;;4.60;2.50;;;4.60;99.90;;;;;;5045240;28;20292;-73
2023/03/06 08:18:35;;;;;;;3.80;2.60;;;4.60;99.90;;;;;;5047764;28;20756;-71
2023/03/06 08:21:10;;;;;;;3.20;2.73;;;4.60;99.90;;;;;;5048057;28;20653;-70
2023/03/06 08:23:37;;;;;;;2.97;2.50;;;4.70;99.90;;;;;;5047412;28;20203;-72
2023/03/06 08:26:07;;;;;;;3.53;2.50;;;4.70;99.90;;;;;;5029828;28;20672;-70
2023/03/06 08:28:34;;;;;;;2.60;2.23;;;4.70;99.90;;;;;;5030868;28;20625;-71
2023/03/06 08:31:29;;;;;;;2.70;2.40;;;4.70;99.90;;;;;;5045524;28;20316;-69
2023/03/06 08:33:58;;;;;;;2.20;2.00;;;4.70;99.90;;;;;;5042795;28;20218;-70
2023/03/06 08:36:26;;;;;;;2.30;2.07;;;4.70;99.90;;;;;;5047186;28;20280;-70
2023/03/06 08:38:53;;;;;;;2.10;1.90;;;4.80;99.90;;;;;;5044613;28;20205;-70
2023/03/06 08:41:20;;;;;;;2.30;2.10;;;4.70;99.90;;;;;;5048403;28;20208;-70
2023/03/06 08:43:47;;;;;;;3.07;2.47;;;4.80;99.90;;;;;;5044495;28;20198;-71
2023/03/06 08:46:14;;;;;;;2.77;2.37;;;4.80;99.90;;;;;;5049187;28;20658;-72
2023/03/06 08:48:41;;;;;;;3.00;2.17;;;4.80;99.90;;;;;;5027922;28;20218;-70
2023/03/06 08:51:08;;;;;;;3.00;2.20;;;4.80;99.90;;;;;;5043640;28;20232;-71
2023/03/06 08:53:36;;;;;;;2.90;2.00;;;4.90;99.90;;;;;;5045357;28;20198;-71
2023/03/06 08:56:24;;;;;;;3.23;2.93;;;4.90;99.90;;;;;;5046602;28;20720;-73
2023/03/06 08:58:51;;;;;;;2.77;2.20;;;5.00;99.90;;;;;;5029682;28;20276;-71
2023/03/06 09:01:27;;;;;;;3.70;3.33;;;5.00;99.90;;;;;;5043430;28;20319;-72
2023/03/06 09:03:56;;;;;;;2.33;2.13;;;5.10;99.90;;;;;;5041622;28;20216;-71
2023/03/06 09:06:24;;;;;;;2.30;2.00;;;5.10;99.90;;;;;;5032589;28;20315;-70
2023/03/06 09:08:52;;;;;;;2.60;2.40;;;5.20;99.90;;;;;;5042911;28;20224;-71
2023/03/06 09:11:20;;;;;;;3.10;2.17;;;5.20;99.90;;;;;;5031109;28;21991;-71
2023/03/06 09:13:47;;;;;;;2.50;2.23;;;5.30;99.90;;;;;;5044788;28;20194;-72
2023/03/06 09:16:13;;;;;;;3.40;2.10;;;5.30;99.90;;;;;;5045820;28;20529;-71
2023/03/06 09:18:40;;;;;;;2.97;2.30;;;5.30;99.90;;;;;;5048034;28;20708;-71
2023/03/06 09:21:08;;;;;;;2.37;2.17;;;5.40;99.90;;;;;;5042665;28;20249;-73
2023/03/06 09:23:38;;;;;;;2.23;2.03;;;5.50;99.90;;;;;;5048926;28;20200;-71
2023/03/06 09:26:06;;;;;;;3.80;2.10;;;5.60;99.90;;;;;;5030550;28;20202;-71
2023/03/06 09:28:37;;;;;;;2.23;2.03;;;5.80;99.90;;;;;;5050358;28;20213;-71
2023/03/06 09:31:09;;;;;;;2.33;1.70;;;6.00;99.90;;;;;;5045669;28;20231;-70
2023/03/06 09:33:36;;;;;;;2.83;1.67;;;6.10;99.90;;;;;;5047702;28;20247;-71
2023/03/06 09:36:04;;;;;;;2.03;1.83;;;6.10;99.90;;;;;;5047277;28;20195;-70
2023/03/06 09:38:31;;;;;;;2.73;1.40;;;6.20;99.90;;;;;;5046340;28;20317;-70
2023/03/06 09:40:58;;;;;;;1.27;1.17;;;6.30;99.90;;;;;;5047715;28;20238;-70
2023/03/06 09:43:39;;;;;;;2.10;1.47;;;6.40;99.90;;;;;;5047792;28;20292;-72
2023/03/06 09:46:31;;;;;;;1.83;1.30;;;6.50;99.90;;;;;;5041495;28;20312;-71
2023/03/06 09:49:14;;;;;;;1.50;1.40;;;6.60;99.90;;;;;;5031117;28;20220;-70
2023/03/06 09:52:22;;;;;;;3.07;1.40;;;6.60;99.90;;;;;;5025983;28;20229;-70
2023/03/06 09:54:54;;;;;;;3.10;1.40;;;6.60;99.90;;;;;;4968525;28;20284;-72
2023/03/06 09:57:27;;;;;;;1.83;1.73;;;6.50;99.90;;;;;;5023645;28;20204;-72
2023/03/06 09:59:57;;;;;;;3.67;1.83;;;6.60;99.90;;;;;;5045855;28;20193;-70
2023/03/06 10:02:41;;;;;;;1.97;1.70;;;6.60;99.90;;;;;;5044818;28;20252;-71
2023/03/06 10:05:27;;;;;;;4.30;2.23;;;6.70;99.90;;;;;;5039056;28;20224;-71
2023/03/06 10:08:02;;;;;;;2.30;2.10;;;6.90;99.90;;;;;;5039507;28;20211;-70
2023/03/06 10:10:58;;;;;;;2.40;2.20;;;7.00;99.90;;;;;;5040309;28;20213;-72
2023/03/06 10:13:35;;;;;;;2.70;1.77;;;7.20;99.90;;;;;;5012763;28;20216;-71
2023/03/06 10:16:11;;;;;;;1.80;1.70;;;7.20;99.90;;;;;;5046242;28;20286;-72
2023/03/06 10:18:38;;;;;;;3.53;1.83;;;7.20;99.90;;;;;;5043586;28;20328;-71
2023/03/06 10:21:28;;;;;;;1.60;1.50;;;7.20;99.90;;;;;;5043404;28;20672;-71
2023/03/06 10:24:09;;;;;;;1.83;1.73;;;7.10;99.90;;;;;;5043972;28;20201;-70
2023/03/06 10:26:47;;;;;;;1.57;1.40;;;7.00;99.90;;;;;;5042298;28;20201;-71
2023/03/06 10:29:38;;;;;;;5.50;1.90;;;7.10;99.90;;;;;;5018973;28;20208;-71
2023/03/06 10:32:21;;;;;;;2.50;1.67;;;7.20;99.90;;;;;;5027404;28;20221;-71
2023/03/06 10:34:49;;;;;;;1.90;1.73;;;7.20;99.90;;;;;;5041323;28;20259;-72
2023/03/06 10:37:20;;;;;;;2.07;1.67;;;7.20;99.90;;;;;;5044012;28;20576;-71
2023/03/06 10:39:54;;;;;;;2.10;1.90;;;7.30;99.90;;;;;;5023716;28;20331;-73
2023/03/06 10:42:21;;;;;;;3.87;1.60;;;7.40;99.90;;;;;;5043327;28;20197;-71
2023/03/06 10:45:02;;;;;;;2.77;1.50;;;7.50;99.90;;;;;;5040094;28;20224;-72
2023/03/06 10:47:34;;;;;;;2.53;1.50;;;7.60;99.90;;;;;;5039986;28;20227;-71
2023/03/06 10:50:05;;;;;;;2.30;1.60;;;7.70;99.90;;;;;;5042222;28;20682;-71
2023/03/06 10:52:35;;;;;;;1.43;1.33;;;7.70;99.90;;;;;;5046161;28;20234;-70
2023/03/06 10:55:25;;;;;;;3.37;1.73;;;8.00;99.90;;;;;;5048443;28;20204;-70
2023/03/06 10:57:52;;;;;;;1.57;1.47;;;8.10;99.90;;;;;;5046798;28;20282;-71
2023/03/06 11:00:25;;;;;;;3.00;1.50;;;8.30;99.90;;;;;;5044881;28;20203;-71
2023/03/06 11:03:19;;;;;;;1.73;1.60;;;8.30;99.90;;;;;;5042055;28;20219;-71
2023/03/06 11:06:01;;;;;;;2.50;1.73;;;8.20;99.90;;;;;;5043631;28;20710;-72
2023/03/06 11:08:28;;;;;;;2.33;1.40;;;8.20;99.90;;;;;;5028338;28;20287;-71
2023/03/06 11:11:07;;;;;;;2.90;1.50;;;8.30;99.90;;;;;;5047098;28;20252;-71
2023/03/06 11:13:37;;;;;;;3.67;1.70;;;8.40;99.90;;;;;;5045021;28;20206;-71
2023/03/06 11:16:29;;;;;;;2.53;1.67;;;8.30;99.90;;;;;;5041339;28;20206;-71
2023/03/06 11:18:59;;;;;;;2.87;1.77;;;8.30;99.90;;;;;;5035354;28;20249;-71
2023/03/06 11:21:31;;;;;;;2.70;1.47;;;8.10;99.90;;;;;;5042927;28;20309;-71
2023/03/06 11:24:13;;;;;;;1.33;1.13;;;8.10;99.90;;;;;;5041051;28;20237;-71
2023/03/06 11:26:54;;;;;;;2.50;1.20;;;8.00;99.90;;;;;;5045822;28;20204;-70
2023/03/06 11:29:41;;;;;;;2.80;1.23;;;8.00;99.90;;;;;;5044373;28;20201;-72
2023/03/06 11:32:23;;;;;;;2.70;1.10;;;8.00;99.90;;;;;;5042080;28;20619;-71
2023/03/06 11:34:57;;;;;;;2.63;1.10;;;8.00;99.90;;;;;;5038935;28;20198;-70
2023/03/06 11:37:44;;;;;;;2.20;1.17;;;8.10;99.90;;;;;;5045277;28;20199;-71
2023/03/06 11:40:19;;;;;;;3.80;1.10;;;8.10;99.90;;;;;;5036044;28;20416;-71
2023/03/06 11:43:01;;;;;;;1.27;0.93;;;8.20;99.90;;;;;;5040510;28;20197;-72
2023/03/06 11:45:50;;;;;;;1.10;1.00;;;8.30;99.90;;;;;;5036227;28;20256;-72
2023/03/06 11:48:27;;;;;;;1.40;0.90;;;8.50;99.90;;;;;;5042378;28;20225;-71
2023/03/06 11:51:16;;;;;;;5.30;1.20;;;8.70;99.90;;;;;;5047544;28;20218;-71
2023/03/06 11:53:42;;;;;;;2.50;1.60;;;8.80;99.90;;;;;;5047466;28;20207;-70
2023/03/06 11:56:18;;;;;;;2.43;1.30;;;9.00;99.90;;;;;;5039880;28;20291;-71
2023/03/06 11:59:00;;;;;;;1.87;0.97;;;9.20;99.90;;;;;;5048994;28;20204;-72
2023/03/06 12:01:42;;;;;;;0.77;0.70;;;9.20;99.90;;;;;;5049236;28;20283;-70
2023/03/06 12:04:21;;;;;;;1.57;1.20;;;9.30;99.90;;;;;;5044801;28;20224;-70
2023/03/06 12:07:01;;;;;;;1.70;0.90;;;9.40;99.90;;;;;;5025885;28;20213;-73
2023/03/06 12:09:41;;;;;;;2.77;0.93;;;9.70;99.90;;;;;;5040916;28;20209;-71
2023/03/06 12:12:45;;;;;;;1.60;0.80;;;9.70;99.90;;;;;;5041871;28;20239;-71
2023/03/06 12:15:39;;;;;;;0.90;0.80;;;9.70;99.90;;;;;;5040904;28;20704;-71
2023/03/06 12:18:14;;;;;;;2.03;1.10;;;9.80;99.90;;;;;;5041637;28;20221;-71
2023/03/06 12:20:56;;;;;;;1.50;0.80;;;9.80;99.90;;;;;;5039623;28;20220;-70
2023/03/06 12:23:33;;;;;;;1.30;1.00;;;9.90;99.90;;;;;;5044161;28;20226;-73
2023/03/06 12:26:24;;;;;;;2.27;1.17;;;10.00;99.90;;;;;;5039817;28;20744;-71
2023/03/06 12:29:14;;;;;;;1.87;0.90;;;10.00;99.90;;;;;;5022954;28;20304;-71
2023/03/06 12:31:44;;;;;;;4.27;1.00;;;10.10;99.90;;;;;;5039727;28;20267;-71
2023/03/06 12:34:20;;;;;;;1.13;1.00;;;10.20;99.90;;;;;;5040883;28;20217;-70
2023/03/06 12:37:13;;;;;;;1.90;0.87;;;10.30;99.90;;;;;;5042463;28;20270;-70
2023/03/06 12:40:16;;;;;;;1.67;1.10;;;10.30;99.90;;;;;;5039006;28;20309;-71
2023/03/06 12:43:20;;;;;;;2.40;0.70;;;10.30;99.90;;;;;;5038344;28;20680;-73
2023/03/06 12:45:52;;;;;;;1.00;0.60;;;10.30;99.90;;;;;;5032581;28;20296;-70
2023/03/06 12:48:26;;;;;;;0.97;0.70;;;10.10;99.90;;;;;;5040845;28;20224;-73
2023/03/06 12:50:54;;;;;;;1.77;0.70;;;10.00;99.90;;;;;;5039359;28;20298;-70
2023/03/06 12:53:28;;;;;;;1.00;0.80;;;9.80;99.90;;;;;;5042721;28;20544;-71
2023/03/06 12:55:57;;;;;;;2.00;0.80;;;9.70;99.90;;;;;;5024799;28;20228;-71
2023/03/06 12:58:29;;;;;;;0.90;0.80;;;9.70;99.90;;;;;;5038582;28;20245;-72
2023/03/06 13:01:05;;;;;;;0.67;0.67;;;9.70;99.90;;;;;;5035605;28;20221;-72
2023/03/06 13:03:54;;;;;;;2.03;0.83;;;9.70;99.90;;;;;;5036852;28;20239;-71
2023/03/06 13:06:32;;;;;;;0.60;0.60;;;9.70;99.90;;;;;;5024654;28;20307;-71
2023/03/06 13:09:04;;;;;;;0.70;0.70;;;9.80;99.90;;;;;;5039115;28;20240;-71
2023/03/06 13:11:56;;;;;;;1.37;0.93;;;9.80;99.90;;;;;;5024236;28;20708;-70